createdAt,value
2019-02-23T00:04:17.094Z,55.30
2019-02-23T00:06:52.908Z,54.80
2019-02-23T00:09:28.214Z,54.70
2019-02-23T00:12:04.677Z,54.80
2019-02-23T00:14:40.406Z,54.60
2019-02-23T00:17:15.759Z,54.50
2019-02-23T00:19:53.152Z,54.70
2019-02-23T00:22:28.266Z,54.90
2019-02-23T00:25:04.534Z,54.80
2019-02-23T00:27:39.576Z,55.50
2019-02-23T00:30:14.668Z,54.80
2019-02-23T00:32:50.074Z,55.00
2019-02-23T00:35:25.227Z,55.10
2019-02-23T00:45:45.380Z,54.50
2019-02-23T00:48:20.779Z,55.20
2019-02-23T00:50:55.906Z,55.30
2019-02-23T00:53:31.268Z,54.70
2019-02-23T00:56:06.373Z,54.70
2019-02-23T00:58:41.429Z,54.90
2019-02-23T01:03:52.612Z,55.30
2019-02-23T01:06:28.175Z,55.30
2019-02-23T01:09:03.565Z,55.00
2019-02-23T01:11:40.901Z,55.40
2019-02-23T01:14:15.916Z,55.10
2019-02-23T01:16:51.794Z,55.20
2019-02-23T01:19:26.861Z,55.30
2019-02-23T01:22:01.946Z,55.40
2019-02-23T01:24:36.993Z,55.10
2019-02-23T01:27:12.106Z,55.30
2019-02-23T01:29:47.143Z,55.20
2019-02-23T01:32:22.651Z,55.60
2019-02-23T01:37:32.985Z,55.80
2019-02-23T01:40:10.090Z,55.60
2019-02-23T01:42:45.537Z,55.70
2019-02-23T01:45:21.250Z,55.80
2019-02-23T01:47:56.626Z,55.50
2019-02-23T01:50:40.666Z,55.50
2019-02-23T01:53:28.997Z,55.70
2019-02-23T01:56:04.075Z,55.30
2019-02-23T01:58:39.231Z,55.60
2019-02-23T02:01:14.334Z,56.00
2019-02-23T02:03:49.405Z,56.20
2019-02-23T02:06:24.439Z,56.60
2019-02-23T02:08:59.473Z,56.80
2019-02-23T02:11:34.578Z,57.10
2019-02-23T02:14:09.917Z,57.10
2019-02-23T02:20:19.063Z,57.10
2019-02-23T02:22:54.208Z,57.30
2019-02-23T02:25:29.549Z,57.30
2019-02-23T02:28:04.927Z,57.50
2019-02-23T02:30:39.962Z,57.80
2019-02-23T02:33:15.277Z,57.70
2019-02-23T02:35:51.296Z,57.70
2019-02-23T02:38:26.335Z,57.80
2019-02-23T02:41:01.440Z,58.00
2019-02-23T02:43:36.482Z,57.90
2019-02-23T02:46:11.504Z,58.40
2019-02-23T02:48:46.553Z,58.40
2019-02-23T02:51:23.576Z,58.50
2019-02-23T02:53:58.753Z,58.70
2019-02-23T02:59:11.494Z,59.00
2019-02-23T03:01:46.543Z,59.60
2019-02-23T03:04:21.660Z,59.20
2019-02-23T03:09:32.966Z,59.20
2019-02-23T03:14:43.927Z,59.70
2019-02-23T03:17:20.128Z,59.60
2019-02-23T03:19:55.145Z,60.10
2019-02-23T03:22:30.221Z,60.40
2019-02-23T03:25:07.038Z,60.60
2019-02-23T03:27:42.158Z,60.70
2019-02-23T03:30:17.186Z,60.80
2019-02-23T03:35:26.787Z,60.20
2019-02-23T03:40:37.345Z,60.60
2019-02-23T03:43:12.417Z,60.90
2019-02-23T03:45:47.463Z,61.70
2019-02-23T03:48:22.842Z,61.30
2019-02-23T03:50:57.886Z,61.00
2019-02-23T03:53:33.367Z,61.00
2019-02-23T03:56:08.899Z,60.70
2019-02-23T04:09:05.967Z,60.60
2019-02-23T04:11:42.633Z,60.40
2019-02-23T04:24:37.193Z,60.80
2019-02-23T04:42:43.248Z,61.70
2019-02-23T04:50:28.246Z,62.30
2019-02-23T04:53:03.318Z,62.50
2019-02-23T05:05:59.320Z,62.50
2019-02-23T05:08:34.378Z,63.10
2019-02-23T05:11:09.401Z,62.90
2019-02-23T05:13:44.544Z,63.40
2019-02-23T05:16:19.580Z,64.00
2019-02-23T05:18:54.695Z,63.20
2019-02-23T05:21:30.182Z,63.60
2019-02-23T05:24:05.627Z,62.80
2019-02-23T05:26:40.719Z,63.10
2019-02-23T05:29:15.750Z,63.40
2019-02-23T05:31:50.786Z,63.40
2019-02-23T05:34:26.073Z,63.70
2019-02-23T05:37:02.180Z,63.70
2019-02-23T05:39:38.276Z,63.90
2019-02-23T05:42:13.939Z,64.00
2019-02-23T05:44:49.002Z,64.00
2019-02-23T05:47:24.067Z,64.70
2019-02-23T05:49:59.198Z,65.60
2019-02-23T05:52:39.908Z,65.20
2019-02-23T05:55:15.258Z,65.40
2019-02-23T05:57:50.330Z,65.40
2019-02-23T06:00:25.475Z,65.00
2019-02-23T06:03:02.032Z,65.70
2019-02-23T06:05:37.445Z,65.80
2019-02-23T06:08:14.429Z,67.40
2019-02-23T06:10:49.588Z,66.70
2019-02-23T06:13:24.899Z,67.00
2019-02-23T06:15:59.945Z,66.20
2019-02-23T06:18:34.966Z,66.90
2019-02-23T06:21:10.005Z,66.10
2019-02-23T06:23:45.129Z,66.60
2019-02-23T06:26:20.514Z,65.80
2019-02-23T06:28:55.554Z,65.90
2019-02-23T06:31:30.578Z,65.90
2019-02-23T06:34:15.565Z,65.10
2019-02-23T06:36:42.786Z,65.70
2019-02-23T06:39:17.843Z,65.10
2019-02-23T06:41:53.674Z,65.00
2019-02-23T06:54:48.250Z,61.30
2019-02-23T06:57:23.674Z,61.40
2019-02-23T06:59:58.761Z,61.40
2019-02-23T07:02:33.804Z,60.90
2019-02-23T07:05:08.985Z,59.20
2019-02-23T07:07:44.431Z,57.40
2019-02-23T07:10:19.518Z,56.20
2019-02-23T07:12:55.750Z,53.90
2019-02-23T07:15:31.288Z,52.60
2019-02-23T07:18:06.444Z,51.30
2019-02-23T07:25:54.197Z,50.70
2019-02-23T07:28:30.156Z,51.50
2019-02-23T07:33:40.333Z,53.00
2019-02-23T07:36:15.379Z,53.10
2019-02-23T07:38:50.792Z,53.10
2019-02-23T07:44:00.421Z,51.80
2019-02-23T07:46:35.810Z,52.20
2019-02-23T07:49:10.840Z,52.10
2019-02-23T07:51:46.387Z,50.40
2019-02-23T07:54:21.743Z,48.30
2019-02-23T07:56:58.077Z,47.10
2019-02-23T07:59:33.126Z,46.30
2019-02-23T08:02:08.235Z,46.10
2019-02-23T08:04:43.335Z,46.20
2019-02-23T08:07:18.750Z,45.60
2019-02-23T08:09:54.802Z,44.10
2019-02-23T08:12:29.872Z,42.70
2019-02-23T08:15:08.971Z,41.90
2019-02-23T08:17:45.644Z,41.10
2019-02-23T08:20:20.759Z,39.20
2019-02-23T08:22:55.849Z,37.60
2019-02-23T08:25:31.967Z,34.30
2019-02-23T08:35:53.055Z,32.50
2019-02-23T08:38:28.496Z,31.90
2019-02-23T08:41:05.499Z,32.50
2019-02-23T08:43:41.560Z,31.20
2019-02-23T08:46:16.808Z,30.30
2019-02-23T08:56:37.661Z,28.20
2019-02-23T08:59:13.422Z,28.20
2019-02-23T09:12:07.539Z,27.80
2019-02-23T09:17:18.562Z,27.60
2019-02-23T09:19:56.775Z,26.60
2019-02-23T09:22:32.385Z,26.50
2019-02-23T09:27:45.456Z,25.80
2019-02-23T09:30:21.028Z,25.20
2019-02-23T09:35:33.074Z,25.40
2019-02-23T09:38:11.182Z,25.80
2019-02-23T09:40:46.871Z,25.50
2019-02-23T09:43:24.022Z,23.10
2019-02-23T09:48:36.005Z,22.10
2019-02-23T09:56:25.882Z,21.00
2019-02-23T10:01:37.523Z,19.80
2019-02-23T10:04:13.151Z,19.50
2019-02-23T10:09:23.816Z,19.10
2019-02-23T10:11:58.977Z,19.20
2019-02-23T10:14:34.488Z,19.90
2019-02-23T10:19:45.277Z,22.00
2019-02-23T10:27:30.083Z,20.30
2019-02-23T10:32:44.518Z,19.70
2019-02-23T10:35:20.585Z,18.50
2019-02-23T10:37:59.694Z,18.30
2019-02-23T10:48:20.105Z,18.70
2019-02-23T10:50:55.250Z,17.10
2019-02-23T11:01:17.356Z,16.10
2019-02-23T11:03:52.587Z,15.20
2019-02-23T11:09:06.313Z,15.30
2019-02-23T11:11:45.130Z,15.30
2019-02-23T11:14:26.133Z,15.20
2019-02-23T11:17:01.438Z,15.00
2019-02-23T11:22:12.867Z,15.00
2019-02-23T11:24:52.428Z,14.00
2019-02-23T11:27:27.692Z,14.60
2019-02-23T11:30:04.940Z,14.10
2019-02-23T11:32:41.120Z,14.30
2019-02-23T11:35:17.872Z,13.80
2019-02-23T11:37:53.161Z,14.20
2019-02-23T11:40:28.777Z,14.20
2019-02-23T11:43:04.244Z,13.80
2019-02-23T11:45:39.522Z,13.80
2019-02-23T11:48:15.799Z,13.90
2019-02-23T11:50:51.942Z,13.70
2019-02-23T11:53:27.128Z,13.80
2019-02-23T11:58:36.963Z,13.60
2019-02-23T12:01:12.143Z,13.90
2019-02-23T12:03:49.145Z,13.70
2019-02-23T12:06:25.271Z,13.70
2019-02-23T12:09:00.361Z,14.10
2019-02-23T12:11:36.731Z,14.30
2019-02-23T12:14:11.966Z,14.30
2019-02-23T12:16:47.180Z,14.00
2019-02-23T12:19:22.426Z,14.30
2019-02-23T12:21:57.512Z,14.70
2019-02-23T12:24:34.629Z,16.50
2019-02-23T12:27:11.251Z,17.80
2019-02-23T12:29:47.617Z,18.20
2019-02-23T12:32:22.822Z,19.60
2019-02-23T12:34:57.895Z,20.00
2019-02-23T12:37:34.967Z,21.40
2019-02-23T12:40:12.476Z,21.70
2019-02-23T12:42:49.037Z,21.70
2019-02-23T12:45:24.181Z,21.40
2019-02-23T12:47:59.359Z,21.50
2019-02-23T12:50:34.425Z,21.10
2019-02-23T12:53:11.043Z,21.10
2019-02-23T12:55:48.429Z,22.20
2019-02-23T12:58:24.462Z,22.60
2019-02-23T13:00:59.494Z,22.80
2019-02-23T13:03:34.583Z,21.60
2019-02-23T13:06:11.080Z,21.50
2019-02-23T13:09:07.391Z,21.00
2019-02-23T13:11:53.836Z,21.40
2019-02-23T13:14:34.915Z,21.90
2019-02-23T13:17:17.639Z,21.90
2019-02-23T13:20:13.249Z,21.90
2019-02-23T13:23:10.206Z,22.10
2019-02-23T13:26:18.461Z,22.30
2019-02-23T13:29:17.925Z,22.10
2019-02-23T13:32:13.834Z,22.80
2019-02-23T13:35:10.735Z,22.80
2019-02-23T13:37:48.876Z,22.70
2019-02-23T13:40:48.036Z,22.40
2019-02-23T13:43:45.148Z,22.40
2019-02-23T13:46:42.932Z,22.30
2019-02-23T13:49:46.767Z,22.30
2019-02-23T13:52:24.904Z,22.80
2019-02-23T13:55:09.398Z,22.00
2019-02-23T13:57:50.722Z,21.70
2019-02-23T14:00:32.379Z,21.30
2019-02-23T14:03:38.353Z,21.00
2019-02-23T14:06:38.918Z,21.20
2019-02-23T14:09:29.537Z,21.10
2019-02-23T14:12:20.412Z,20.60
2019-02-23T14:15:16.593Z,21.20
2019-02-23T14:18:04.099Z,21.10
2019-02-23T14:20:48.775Z,20.80
2019-02-23T14:23:39.301Z,21.80
2019-02-23T14:26:34.079Z,22.70
2019-02-23T14:29:21.643Z,22.70
2019-02-23T14:32:03.520Z,23.30
2019-02-23T14:34:51.225Z,23.70
2019-02-23T14:37:36.058Z,23.80
2019-02-23T14:40:21.146Z,23.90
2019-02-23T14:43:08.920Z,24.30
2019-02-23T14:46:20.911Z,24.50
2019-02-23T14:49:06.545Z,24.30
2019-02-23T14:52:21.877Z,23.90
2019-02-23T14:55:12.447Z,24.10
2019-02-23T14:57:59.762Z,23.30
2019-02-23T15:00:59.225Z,22.50
2019-02-23T15:03:42.422Z,22.50
2019-02-23T15:06:26.997Z,22.80
2019-02-23T15:09:21.595Z,22.90
2019-02-23T15:12:12.942Z,22.80
2019-02-23T15:15:00.561Z,22.70
2019-02-23T15:17:44.875Z,22.60
2019-02-23T15:20:26.180Z,22.20
2019-02-23T15:23:17.403Z,22.30
2019-02-23T15:26:18.745Z,22.80
2019-02-23T15:29:07.195Z,23.00
2019-02-23T15:31:48.050Z,23.00
2019-02-23T15:34:48.868Z,23.00
2019-02-23T15:37:29.771Z,23.10
2019-02-23T15:40:17.819Z,23.60
2019-02-23T15:42:59.713Z,24.20
2019-02-23T15:46:00.448Z,24.10
2019-02-23T15:48:58.124Z,24.40
2019-02-23T15:51:34.726Z,24.20
2019-02-23T15:54:10.152Z,24.10
2019-02-23T15:56:45.680Z,24.20
2019-02-23T15:59:21.018Z,24.30
2019-02-23T16:01:56.174Z,24.80
2019-02-23T16:04:31.315Z,25.30
2019-02-23T16:07:06.447Z,26.60
2019-02-23T16:09:41.479Z,27.40
2019-02-23T16:12:16.538Z,28.20
2019-02-23T16:14:51.643Z,28.90
2019-02-23T16:17:26.666Z,30.10
2019-02-23T16:20:01.721Z,30.60
2019-02-23T16:25:13.570Z,32.00
2019-02-23T16:27:48.965Z,32.80
2019-02-23T16:32:58.978Z,33.70
2019-02-23T16:35:34.101Z,34.70
2019-02-23T16:38:09.259Z,34.50
2019-02-23T16:40:44.649Z,35.60
2019-02-23T16:43:19.730Z,35.00
2019-02-23T16:45:54.748Z,35.30
2019-02-23T16:48:31.456Z,35.40
2019-02-23T16:51:06.476Z,35.60
2019-02-23T16:53:41.969Z,35.80
2019-02-23T16:56:17.008Z,36.00
2019-02-23T16:58:53.059Z,36.20
2019-02-23T17:01:28.066Z,36.20
2019-02-23T17:04:04.062Z,36.50
2019-02-23T17:06:39.090Z,36.90
2019-02-23T17:09:14.110Z,36.90
2019-02-23T17:11:49.489Z,37.10
2019-02-23T17:14:25.545Z,37.60
2019-02-23T17:19:37.866Z,37.60
2019-02-23T17:22:12.885Z,37.60
2019-02-23T17:24:48.994Z,38.00
2019-02-23T17:27:35.582Z,38.00
2019-02-23T17:30:01.086Z,38.10
2019-02-23T17:32:36.520Z,38.20
2019-02-23T17:35:11.855Z,38.50
2019-02-23T17:37:47.805Z,38.90
2019-02-23T17:40:22.838Z,38.90
2019-02-23T17:42:58.198Z,39.00
2019-02-23T17:45:33.206Z,39.10
2019-02-23T17:48:08.561Z,39.50
2019-02-23T17:50:43.909Z,39.80
2019-02-23T17:53:18.966Z,39.80
2019-02-23T17:55:54.075Z,40.00
2019-02-23T17:58:29.180Z,40.10
2019-02-23T18:01:04.618Z,40.40
2019-02-23T18:03:39.640Z,40.50
2019-02-23T18:06:15.051Z,40.50
2019-02-23T18:08:50.395Z,40.70
2019-02-23T18:11:25.846Z,41.10
2019-02-23T18:14:00.881Z,41.00
2019-02-23T18:16:36.728Z,41.30
2019-02-23T18:19:12.654Z,41.30
2019-02-23T18:21:48.538Z,41.40
2019-02-23T18:24:24.836Z,41.50
2019-02-23T18:26:59.938Z,41.40
2019-02-23T18:29:36.294Z,41.80
2019-02-23T18:32:11.314Z,42.00
2019-02-23T18:34:47.172Z,42.10
2019-02-23T18:37:22.638Z,42.30
2019-02-23T18:39:58.699Z,42.20
2019-02-23T18:42:34.722Z,42.20
2019-02-23T18:45:10.104Z,41.90
2019-02-23T18:47:45.823Z,42.10
2019-02-23T18:50:21.926Z,42.40
2019-02-23T18:52:57.218Z,42.80
2019-02-23T18:55:40.622Z,42.90
2019-02-23T18:58:09.016Z,43.30
2019-02-23T19:00:45.028Z,43.40
2019-02-23T19:03:20.502Z,43.60
2019-02-23T19:05:55.816Z,43.70
2019-02-23T19:08:31.833Z,43.90
2019-02-23T19:11:06.870Z,43.80
2019-02-23T19:13:42.376Z,43.90
2019-02-23T19:16:17.411Z,43.70
2019-02-23T19:18:52.510Z,44.00
2019-02-23T19:21:28.787Z,44.00
2019-02-23T19:24:04.534Z,44.10
2019-02-23T19:26:39.882Z,44.10
2019-02-23T19:29:14.981Z,44.30
2019-02-23T19:31:50.017Z,44.40
2019-02-23T19:34:25.503Z,44.70
2019-02-23T19:37:00.513Z,44.70
2019-02-23T19:39:35.566Z,44.90
2019-02-23T19:42:10.670Z,45.60
2019-02-23T19:44:46.653Z,45.50
2019-02-23T19:47:21.698Z,45.50
2019-02-23T19:49:58.529Z,45.70
2019-02-23T19:52:33.680Z,45.60
2019-02-23T19:55:11.926Z,45.60
2019-02-23T19:57:47.115Z,45.40
2019-02-23T20:00:22.507Z,45.60
2019-02-23T20:02:57.856Z,46.30
2019-02-23T20:05:33.300Z,46.30
2019-02-23T20:08:09.287Z,46.50
2019-02-23T20:10:44.327Z,46.70
2019-02-23T20:13:19.366Z,46.70
2019-02-23T20:15:54.863Z,46.80
2019-02-23T20:18:30.311Z,47.00
2019-02-23T20:21:06.400Z,47.50
2019-02-23T20:23:41.413Z,46.80
2019-02-23T20:26:16.582Z,45.90
2019-02-23T20:28:51.724Z,46.40
2019-02-23T20:31:27.161Z,46.30
2019-02-23T20:34:02.298Z,46.40
2019-02-23T20:36:37.398Z,46.20
2019-02-23T20:39:12.445Z,46.40
2019-02-23T20:41:48.087Z,46.60
2019-02-23T20:44:23.544Z,46.60
2019-02-23T20:46:58.973Z,46.90
2019-02-23T20:49:34.463Z,46.80
2019-02-23T20:52:09.549Z,46.80
2019-02-23T20:54:44.701Z,47.30
2019-02-23T20:57:19.832Z,47.40
2019-02-23T20:59:54.941Z,47.30
2019-02-23T21:02:30.414Z,47.20
2019-02-23T21:05:08.409Z,47.50
2019-02-23T21:07:43.769Z,47.60
2019-02-23T21:10:19.212Z,48.80
2019-02-23T21:12:54.650Z,51.30
2019-02-23T21:15:30.111Z,51.30
2019-02-23T21:18:05.225Z,51.50
2019-02-23T21:20:40.759Z,52.60
2019-02-23T21:23:16.059Z,53.00
2019-02-23T21:25:52.079Z,53.20
2019-02-23T21:28:27.111Z,53.20
2019-02-23T21:31:03.389Z,53.10
2019-02-23T21:33:38.438Z,52.30
2019-02-23T21:36:13.537Z,52.20
2019-02-23T21:38:48.606Z,50.70
2019-02-23T21:41:24.624Z,49.90
2019-02-23T21:43:59.649Z,51.50
2019-02-23T21:46:35.027Z,49.90
2019-02-23T21:49:10.475Z,49.40
2019-02-23T21:51:45.487Z,49.20
2019-02-23T21:54:21.255Z,48.90
2019-02-23T21:56:56.718Z,48.60
2019-02-23T21:59:32.260Z,48.60
2019-02-23T22:02:08.831Z,48.90
2019-02-23T22:04:44.267Z,49.10
2019-02-23T22:07:19.913Z,52.10
2019-02-23T22:09:55.522Z,49.40
2019-02-23T22:12:30.910Z,48.80
2019-02-23T22:15:07.544Z,51.00
2019-02-23T22:17:42.576Z,48.60
2019-02-23T22:20:17.684Z,49.00
2019-02-23T22:22:54.616Z,49.00
2019-02-23T22:25:29.470Z,48.70
2019-02-23T22:28:04.929Z,48.40
2019-02-23T22:30:40.010Z,48.40
2019-02-23T22:33:15.068Z,48.50
2019-02-23T22:35:50.089Z,48.80
2019-02-23T22:38:25.212Z,48.80
2019-02-23T22:41:00.238Z,49.10
2019-02-23T22:43:35.285Z,49.20
2019-02-23T22:46:10.313Z,49.60
2019-02-23T22:48:46.317Z,49.30
2019-02-23T22:51:21.338Z,49.40
2019-02-23T22:53:56.975Z,49.60
2019-02-23T22:56:32.342Z,49.70
2019-02-23T22:59:08.263Z,50.00
2019-02-23T23:01:45.186Z,50.20
2019-02-23T23:04:20.276Z,50.90
2019-02-23T23:06:55.669Z,51.10
2019-02-23T23:09:31.729Z,51.70
2019-02-23T23:12:06.839Z,51.70
2019-02-23T23:14:42.520Z,52.10
2019-02-23T23:17:17.559Z,52.10
2019-02-23T23:19:52.586Z,52.00
2019-02-23T23:22:27.924Z,51.70
2019-02-23T23:25:03.014Z,51.70
2019-02-23T23:27:38.147Z,51.70
2019-02-23T23:30:13.176Z,51.70
2019-02-23T23:32:48.469Z,51.60
2019-02-23T23:35:23.521Z,51.60
2019-02-23T23:37:58.945Z,51.90
2019-02-23T23:40:34.874Z,51.80
2019-02-23T23:43:10.345Z,52.50
2019-02-23T23:45:45.379Z,52.50
2019-02-23T23:48:20.722Z,52.50
2019-02-23T23:50:55.769Z,54.80
2019-02-23T23:53:31.103Z,55.70
2019-02-23T23:56:06.448Z,56.10
2019-02-23T23:58:41.789Z,56.40
